This is the latest recevied weather packets stored in our database for station/object KE8ZLU. If no packets are shown the sender has not sent any weather packets the latest 10 day(s).
| Time | Temp. | Humidity | Pressure | Rain* | Wind** | Luminosity | Snow |
|---|---|---|---|---|---|---|---|
| 1777904747 | 16.67° C | 60% | 1005.1 hPa | 0 mm | - | 499 W/m² | - |
| 1777904444 | 16.67° C | 60% | 1005.5 hPa | 0 mm | - | 486 W/m² | - |
| 1777904141 | 16.67° C | 61% | 1005.5 hPa | 0 mm | - | 472 W/m² | - |
| 1777903838 | 16.11° C | 64% | 1005.6 hPa | 0 mm | - | 460 W/m² | - |
| 1777903534 | 15.56° C | 64% | 1005.6 hPa | 0 mm | - | 447 W/m² | - |
| 1777903231 | 15.56° C | 65% | 1005.6 hPa | 0 mm | - | 417 W/m² | - |
| 1777902927 | 15.56° C | 65% | 1005.7 hPa | 0 mm | - | 417 W/m² | - |
| 1777902624 | 15° C | 67% | 1005.7 hPa | 0 mm | - | 374 W/m² | - |
| 1777902321 | 15° C | 67% | 1005.5 hPa | 0 mm | - | 374 W/m² | - |
| 1777902018 | 15° C | 67% | 1005.7 hPa | 0 mm | - | 374 W/m² | - |
| 1777901716 | 14.44° C | 67% | 1005.7 hPa | 0 mm | - | 359 W/m² | - |
| 1777901413 | 14.44° C | 68% | 1006 hPa | 0 mm | - | 345 W/m² | - |
| 1777901111 | 13.89° C | 69% | 1006 hPa | 0 mm | - | 322 W/m² | - |
| 1777900809 | 12.78° C | 74% | 1005.7 hPa | 0 mm | - | 188 W/m² | - |
| 1777900506 | 12.78° C | 74% | 1006.1 hPa | 0 mm | - | 188 W/m² | - |
| 1777900203 | 12.78° C | 74% | 1006.3 hPa | 0 mm | - | 188 W/m² | - |
| 1777899899 | 12.78° C | 74% | 1006.1 hPa | 0 mm | - | 188 W/m² | - |
| 1777899595 | 12.78° C | 74% | 1006.1 hPa | 0 mm | - | 188 W/m² | - |
| 1777899293 | 12.78° C | 74% | 1006.1 hPa | 0 mm | - | 188 W/m² | - |
| 1777898990 | 12.78° C | 74% | 1006.2 hPa | 0 mm | - | 188 W/m² | - |
| 1777898687 | 12.78° C | 74% | 1006.2 hPa | 0 mm | - | 188 W/m² | - |
| 1777898384 | 12.78° C | 74% | 1006.2 hPa | 0 mm | - | 188 W/m² | - |
| 1777898082 | 11.67° C | 77% | 1006.3 hPa | 0 mm | - | 137 W/m² | - |
| 1777897778 | 11.67° C | 77% | 1006.2 hPa | 0 mm | - | 137 W/m² | - |
| 1777897475 | 11.67° C | 77% | 1006.6 hPa | 0 mm | - | 137 W/m² | - |
* Rain latest hour (hover to see other rain measurements)
** Current wind speed in m/s (hover to see current wind gust speed)